sensor_id;sensor_type;location;lat;lon;timestamp;temperature;humidity
31113;DHT22;17763;48.730;9.136;2023-12-20T00:00:26;6.50;99.90
31113;DHT22;17763;48.730;9.136;2023-12-20T00:02:56;6.50;99.90
31113;DHT22;17763;48.730;9.136;2023-12-20T00:05:21;6.50;99.90
31113;DHT22;17763;48.730;9.136;2023-12-20T00:07:47;6.60;99.90
31113;DHT22;17763;48.730;9.136;2023-12-20T00:10:15;6.50;99.90
31113;DHT22;17763;48.730;9.136;2023-12-20T00:12:43;6.50;99.90
31113;DHT22;17763;48.730;9.136;2023-12-20T00:15:09;6.60;99.90
31113;DHT22;17763;48.730;9.136;2023-12-20T00:17:35;6.60;99.90
31113;DHT22;17763;48.730;9.136;2023-12-20T00:20:03;6.60;99.90
31113;DHT22;17763;48.730;9.136;2023-12-20T00:22:31;6.60;99.90
31113;DHT22;17763;48.730;9.136;2023-12-20T00:24:57;6.60;99.90
31113;DHT22;17763;48.730;9.136;2023-12-20T00:27:25;6.60;99.90
31113;DHT22;17763;48.730;9.136;2023-12-20T00:29:50;6.60;99.90
31113;DHT22;17763;48.730;9.136;2023-12-20T00:32:18;6.60;99.90
31113;DHT22;17763;48.730;9.136;2023-12-20T00:34:48;6.70;99.90
31113;DHT22;17763;48.730;9.136;2023-12-20T00:37:14;6.70;99.90
31113;DHT22;17763;48.730;9.136;2023-12-20T00:39:39;6.60;99.90
31113;DHT22;17763;48.730;9.136;2023-12-20T00:42:05;6.70;99.90
31113;DHT22;17763;48.730;9.136;2023-12-20T00:44:33;6.60;99.90
31113;DHT22;17763;48.730;9.136;2023-12-20T00:47:01;6.70;99.90
31113;DHT22;17763;48.730;9.136;2023-12-20T00:49:27;6.60;99.90
31113;DHT22;17763;48.730;9.136;2023-12-20T00:51:52;6.60;99.90
31113;DHT22;17763;48.730;9.136;2023-12-20T00:54:18;6.60;99.90
31113;DHT22;17763;48.730;9.136;2023-12-20T00:56:44;6.60;99.90
31113;DHT22;17763;48.730;9.136;2023-12-20T00:59:09;6.50;99.90
31113;DHT22;17763;48.730;9.136;2023-12-20T01:01:36;6.50;99.90
31113;DHT22;17763;48.730;9.136;2023-12-20T01:04:02;6.50;99.90
31113;DHT22;17763;48.730;9.136;2023-12-20T01:06:29;6.50;99.90
31113;DHT22;17763;48.730;9.136;2023-12-20T01:08:55;6.50;99.90
31113;DHT22;17763;48.730;9.136;2023-12-20T01:11:21;6.50;99.90
31113;DHT22;17763;48.730;9.136;2023-12-20T01:13:49;6.50;99.90
31113;DHT22;17763;48.730;9.136;2023-12-20T01:16:15;6.40;99.90
31113;DHT22;17763;48.730;9.136;2023-12-20T01:18:41;6.40;99.90
31113;DHT22;17763;48.730;9.136;2023-12-20T01:21:09;6.40;99.90
31113;DHT22;17763;48.730;9.136;2023-12-20T01:23:35;6.40;99.90
31113;DHT22;17763;48.730;9.136;2023-12-20T01:26:00;6.40;99.90
31113;DHT22;17763;48.730;9.136;2023-12-20T01:28:28;6.30;99.90
31113;DHT22;17763;48.730;9.136;2023-12-20T01:30:55;6.30;99.90
31113;DHT22;17763;48.730;9.136;2023-12-20T01:33:20;6.30;99.90
31113;DHT22;17763;48.730;9.136;2023-12-20T01:35:46;6.30;99.90
31113;DHT22;17763;48.730;9.136;2023-12-20T01:38:12;6.30;99.90
31113;DHT22;17763;48.730;9.136;2023-12-20T01:40:39;6.30;99.90
31113;DHT22;17763;48.730;9.136;2023-12-20T01:43:13;6.30;99.90
31113;DHT22;17763;48.730;9.136;2023-12-20T01:45:39;6.30;99.90
31113;DHT22;17763;48.730;9.136;2023-12-20T01:48:05;6.30;99.90
31113;DHT22;17763;48.730;9.136;2023-12-20T01:50:34;6.30;99.90
31113;DHT22;17763;48.730;9.136;2023-12-20T01:53:04;6.30;99.90
31113;DHT22;17763;48.730;9.136;2023-12-20T01:55:33;6.30;99.90
31113;DHT22;17763;48.730;9.136;2023-12-20T01:58:00;6.20;99.90
31113;DHT22;17763;48.730;9.136;2023-12-20T02:00:28;6.20;99.90
31113;DHT22;17763;48.730;9.136;2023-12-20T02:02:55;6.20;99.90
31113;DHT22;17763;48.730;9.136;2023-12-20T02:05:23;6.20;99.90
31113;DHT22;17763;48.730;9.136;2023-12-20T02:07:49;6.30;99.90
31113;DHT22;17763;48.730;9.136;2023-12-20T02:10:17;6.20;99.90
31113;DHT22;17763;48.730;9.136;2023-12-20T02:12:45;6.20;99.90
31113;DHT22;17763;48.730;9.136;2023-12-20T02:15:11;6.20;99.90
31113;DHT22;17763;48.730;9.136;2023-12-20T02:17:38;6.20;99.90
31113;DHT22;17763;48.730;9.136;2023-12-20T02:20:07;6.20;99.90
31113;DHT22;17763;48.730;9.136;2023-12-20T02:22:33;6.20;99.90
31113;DHT22;17763;48.730;9.136;2023-12-20T02:25:01;6.20;99.90
31113;DHT22;17763;48.730;9.136;2023-12-20T02:27:28;6.20;99.90
31113;DHT22;17763;48.730;9.136;2023-12-20T02:29:54;6.20;99.90
31113;DHT22;17763;48.730;9.136;2023-12-20T02:32:20;6.20;99.90
31113;DHT22;17763;48.730;9.136;2023-12-20T02:34:48;6.20;99.90
31113;DHT22;17763;48.730;9.136;2023-12-20T02:37:14;6.20;99.90
31113;DHT22;17763;48.730;9.136;2023-12-20T02:39:42;6.20;99.90
31113;DHT22;17763;48.730;9.136;2023-12-20T02:42:10;6.20;99.90
31113;DHT22;17763;48.730;9.136;2023-12-20T02:44:35;6.20;99.90
31113;DHT22;17763;48.730;9.136;2023-12-20T02:47:02;6.20;99.90
31113;DHT22;17763;48.730;9.136;2023-12-20T02:49:27;6.20;99.90
31113;DHT22;17763;48.730;9.136;2023-12-20T02:51:53;6.20;99.90
31113;DHT22;17763;48.730;9.136;2023-12-20T02:54:19;6.20;99.90
31113;DHT22;17763;48.730;9.136;2023-12-20T02:56:46;6.20;99.90
31113;DHT22;17763;48.730;9.136;2023-12-20T02:59:12;6.20;99.90
31113;DHT22;17763;48.730;9.136;2023-12-20T03:01:45;6.10;99.90
31113;DHT22;17763;48.730;9.136;2023-12-20T03:04:14;6.10;99.90
31113;DHT22;17763;48.730;9.136;2023-12-20T03:06:39;6.10;99.90
31113;DHT22;17763;48.730;9.136;2023-12-20T03:09:05;6.10;99.90
31113;DHT22;17763;48.730;9.136;2023-12-20T03:11:31;6.10;99.90
31113;DHT22;17763;48.730;9.136;2023-12-20T03:13:57;6.10;99.90
31113;DHT22;17763;48.730;9.136;2023-12-20T03:16:23;6.10;99.90
31113;DHT22;17763;48.730;9.136;2023-12-20T03:18:49;6.10;99.90
31113;DHT22;17763;48.730;9.136;2023-12-20T03:21:14;6.10;99.90
31113;DHT22;17763;48.730;9.136;2023-12-20T03:23:42;6.10;99.90
31113;DHT22;17763;48.730;9.136;2023-12-20T03:26:08;6.10;99.90
31113;DHT22;17763;48.730;9.136;2023-12-20T03:28:34;6.20;99.90
31113;DHT22;17763;48.730;9.136;2023-12-20T03:31:03;6.20;99.90
31113;DHT22;17763;48.730;9.136;2023-12-20T03:33:29;6.10;99.90
31113;DHT22;17763;48.730;9.136;2023-12-20T03:35:55;6.10;99.90
31113;DHT22;17763;48.730;9.136;2023-12-20T03:38:21;6.20;99.90
31113;DHT22;17763;48.730;9.136;2023-12-20T03:40:47;6.10;99.90
31113;DHT22;17763;48.730;9.136;2023-12-20T03:43:12;6.10;99.90
31113;DHT22;17763;48.730;9.136;2023-12-20T03:45:38;6.00;99.90
31113;DHT22;17763;48.730;9.136;2023-12-20T03:48:08;6.10;99.90
31113;DHT22;17763;48.730;9.136;2023-12-20T03:50:34;6.10;99.90
31113;DHT22;17763;48.730;9.136;2023-12-20T03:53:00;6.10;99.90
31113;DHT22;17763;48.730;9.136;2023-12-20T03:55:26;6.00;99.90
31113;DHT22;17763;48.730;9.136;2023-12-20T03:57:54;6.10;99.90
31113;DHT22;17763;48.730;9.136;2023-12-20T04:00:20;6.00;99.90
31113;DHT22;17763;48.730;9.136;2023-12-20T04:02:45;6.00;99.90
31113;DHT22;17763;48.730;9.136;2023-12-20T04:05:11;6.00;99.90
31113;DHT22;17763;48.730;9.136;2023-12-20T04:07:37;5.90;99.90
31113;DHT22;17763;48.730;9.136;2023-12-20T04:10:05;5.90;99.90
31113;DHT22;17763;48.730;9.136;2023-12-20T04:12:32;5.90;99.90
31113;DHT22;17763;48.730;9.136;2023-12-20T04:14:57;5.90;99.90
31113;DHT22;17763;48.730;9.136;2023-12-20T04:17:25;5.90;99.90
31113;DHT22;17763;48.730;9.136;2023-12-20T04:19:51;5.80;99.90
31113;DHT22;17763;48.730;9.136;2023-12-20T04:22:20;5.80;99.90
31113;DHT22;17763;48.730;9.136;2023-12-20T04:24:45;5.80;99.90
31113;DHT22;17763;48.730;9.136;2023-12-20T04:27:11;5.80;99.90
31113;DHT22;17763;48.730;9.136;2023-12-20T04:29:37;5.80;99.90
31113;DHT22;17763;48.730;9.136;2023-12-20T04:32:05;5.80;99.90
31113;DHT22;17763;48.730;9.136;2023-12-20T04:34:31;5.80;99.90
31113;DHT22;17763;48.730;9.136;2023-12-20T04:36:57;5.70;99.90
31113;DHT22;17763;48.730;9.136;2023-12-20T04:39:22;5.70;99.90
31113;DHT22;17763;48.730;9.136;2023-12-20T04:41:48;5.70;99.90
31113;DHT22;17763;48.730;9.136;2023-12-20T04:44:16;5.70;99.90
31113;DHT22;17763;48.730;9.136;2023-12-20T04:46:41;5.70;99.90
31113;DHT22;17763;48.730;9.136;2023-12-20T04:49:07;5.70;99.90
31113;DHT22;17763;48.730;9.136;2023-12-20T04:51:36;5.60;99.90
31113;DHT22;17763;48.730;9.136;2023-12-20T04:54:02;5.60;99.90
31113;DHT22;17763;48.730;9.136;2023-12-20T04:56:28;5.70;99.90
31113;DHT22;17763;48.730;9.136;2023-12-20T04:58:53;5.60;99.90
31113;DHT22;17763;48.730;9.136;2023-12-20T05:01:19;5.60;99.90
31113;DHT22;17763;48.730;9.136;2023-12-20T05:03:46;5.60;99.90
31113;DHT22;17763;48.730;9.136;2023-12-20T05:06:11;5.60;99.90
31113;DHT22;17763;48.730;9.136;2023-12-20T05:08:39;5.60;99.90
31113;DHT22;17763;48.730;9.136;2023-12-20T05:11:05;5.60;99.90
31113;DHT22;17763;48.730;9.136;2023-12-20T05:13:31;5.60;99.90
31113;DHT22;17763;48.730;9.136;2023-12-20T05:15:56;5.60;99.90
31113;DHT22;17763;48.730;9.136;2023-12-20T05:18:22;5.60;99.90
31113;DHT22;17763;48.730;9.136;2023-12-20T05:20:51;5.60;99.90
31113;DHT22;17763;48.730;9.136;2023-12-20T05:23:17;5.60;99.90
31113;DHT22;17763;48.730;9.136;2023-12-20T05:25:43;5.50;99.90
31113;DHT22;17763;48.730;9.136;2023-12-20T05:28:08;5.50;99.90
31113;DHT22;17763;48.730;9.136;2023-12-20T05:30:34;5.50;99.90
31113;DHT22;17763;48.730;9.136;2023-12-20T05:33:00;5.50;99.90
31113;DHT22;17763;48.730;9.136;2023-12-20T05:35:27;5.50;99.90
31113;DHT22;17763;48.730;9.136;2023-12-20T05:37:53;5.50;99.90
31113;DHT22;17763;48.730;9.136;2023-12-20T05:40:19;5.50;99.90
31113;DHT22;17763;48.730;9.136;2023-12-20T05:42:49;5.50;99.90
31113;DHT22;17763;48.730;9.136;2023-12-20T05:45:17;5.50;99.90
31113;DHT22;17763;48.730;9.136;2023-12-20T05:47:42;5.50;99.90
31113;DHT22;17763;48.730;9.136;2023-12-20T05:50:08;5.50;99.90
31113;DHT22;17763;48.730;9.136;2023-12-20T05:52:34;5.50;99.90
31113;DHT22;17763;48.730;9.136;2023-12-20T05:55:00;5.40;99.90
31113;DHT22;17763;48.730;9.136;2023-12-20T05:57:28;5.40;99.90
31113;DHT22;17763;48.730;9.136;2023-12-20T05:59:54;5.50;99.90
31113;DHT22;17763;48.730;9.136;2023-12-20T06:02:19;5.40;99.90
31113;DHT22;17763;48.730;9.136;2023-12-20T06:04:45;5.50;99.90
31113;DHT22;17763;48.730;9.136;2023-12-20T06:07:12;5.50;99.90
31113;DHT22;17763;48.730;9.136;2023-12-20T06:09:38;5.50;99.90
31113;DHT22;17763;48.730;9.136;2023-12-20T06:12:04;5.50;99.90
31113;DHT22;17763;48.730;9.136;2023-12-20T06:14:29;5.50;99.90
31113;DHT22;17763;48.730;9.136;2023-12-20T06:16:56;5.50;99.90
31113;DHT22;17763;48.730;9.136;2023-12-20T06:19:24;5.50;99.90
31113;DHT22;17763;48.730;9.136;2023-12-20T06:21:50;5.50;99.90
31113;DHT22;17763;48.730;9.136;2023-12-20T06:24:16;5.60;99.90
31113;DHT22;17763;48.730;9.136;2023-12-20T06:26:41;5.60;99.90
31113;DHT22;17763;48.730;9.136;2023-12-20T06:29:07;5.60;99.90
31113;DHT22;17763;48.730;9.136;2023-12-20T06:31:32;5.60;99.90
31113;DHT22;17763;48.730;9.136;2023-12-20T06:34:03;5.60;99.90
31113;DHT22;17763;48.730;9.136;2023-12-20T06:36:29;5.60;99.90
31113;DHT22;17763;48.730;9.136;2023-12-20T06:38:54;5.60;99.90
31113;DHT22;17763;48.730;9.136;2023-12-20T06:41:20;5.50;99.90
31113;DHT22;17763;48.730;9.136;2023-12-20T06:43:46;5.50;99.90
31113;DHT22;17763;48.730;9.136;2023-12-20T06:46:12;5.50;99.90
31113;DHT22;17763;48.730;9.136;2023-12-20T06:48:39;5.50;99.90
31113;DHT22;17763;48.730;9.136;2023-12-20T06:51:05;5.50;99.90
31113;DHT22;17763;48.730;9.136;2023-12-20T06:53:33;5.50;99.90
31113;DHT22;17763;48.730;9.136;2023-12-20T06:55:59;5.50;99.90
31113;DHT22;17763;48.730;9.136;2023-12-20T06:58:25;5.50;99.90
31113;DHT22;17763;48.730;9.136;2023-12-20T07:00:53;5.50;99.90
31113;DHT22;17763;48.730;9.136;2023-12-20T07:03:20;5.60;99.90
31113;DHT22;17763;48.730;9.136;2023-12-20T07:05:46;5.60;99.90
31113;DHT22;17763;48.730;9.136;2023-12-20T07:08:11;5.60;99.90
31113;DHT22;17763;48.730;9.136;2023-12-20T07:10:39;5.60;99.90
31113;DHT22;17763;48.730;9.136;2023-12-20T07:13:06;5.60;99.90
31113;DHT22;17763;48.730;9.136;2023-12-20T07:15:32;5.70;99.90
31113;DHT22;17763;48.730;9.136;2023-12-20T07:17:57;5.70;99.90
31113;DHT22;17763;48.730;9.136;2023-12-20T07:20:25;5.70;99.90
31113;DHT22;17763;48.730;9.136;2023-12-20T07:22:51;5.70;99.90
31113;DHT22;17763;48.730;9.136;2023-12-20T07:25:16;5.70;99.90
31113;DHT22;17763;48.730;9.136;2023-12-20T07:27:42;5.70;99.90
31113;DHT22;17763;48.730;9.136;2023-12-20T07:30:08;5.70;99.90
31113;DHT22;17763;48.730;9.136;2023-12-20T07:32:34;5.70;99.90
31113;DHT22;17763;48.730;9.136;2023-12-20T07:34:59;5.80;99.90
31113;DHT22;17763;48.730;9.136;2023-12-20T07:37:28;5.70;99.90
31113;DHT22;17763;48.730;9.136;2023-12-20T07:39:54;5.70;99.90
31113;DHT22;17763;48.730;9.136;2023-12-20T07:42:21;5.60;99.90
31113;DHT22;17763;48.730;9.136;2023-12-20T07:44:47;5.50;99.90
31113;DHT22;17763;48.730;9.136;2023-12-20T07:47:13;5.50;99.90
31113;DHT22;17763;48.730;9.136;2023-12-20T07:49:42;5.50;99.90
31113;DHT22;17763;48.730;9.136;2023-12-20T07:52:08;5.50;99.90
31113;DHT22;17763;48.730;9.136;2023-12-20T07:54:35;5.50;99.90
31113;DHT22;17763;48.730;9.136;2023-12-20T07:57:01;5.40;99.90
31113;DHT22;17763;48.730;9.136;2023-12-20T07:59:28;5.40;99.90
31113;DHT22;17763;48.730;9.136;2023-12-20T08:01:54;5.40;99.90
31113;DHT22;17763;48.730;9.136;2023-12-20T08:04:19;5.40;99.90
31113;DHT22;17763;48.730;9.136;2023-12-20T08:06:47;5.40;99.90
31113;DHT22;17763;48.730;9.136;2023-12-20T08:09:13;5.40;99.90
31113;DHT22;17763;48.730;9.136;2023-12-20T08:11:38;5.30;99.90
31113;DHT22;17763;48.730;9.136;2023-12-20T08:14:06;5.30;99.90
31113;DHT22;17763;48.730;9.136;2023-12-20T08:16:36;5.30;99.90
31113;DHT22;17763;48.730;9.136;2023-12-20T08:19:02;5.30;99.90
31113;DHT22;17763;48.730;9.136;2023-12-20T08:21:28;5.30;99.90
31113;DHT22;17763;48.730;9.136;2023-12-20T08:23:56;5.30;99.90
31113;DHT22;17763;48.730;9.136;2023-12-20T08:26:30;5.30;99.90
31113;DHT22;17763;48.730;9.136;2023-12-20T08:28:56;5.20;99.90
31113;DHT22;17763;48.730;9.136;2023-12-20T08:31:21;5.20;99.90
31113;DHT22;17763;48.730;9.136;2023-12-20T08:33:50;5.20;99.90
31113;DHT22;17763;48.730;9.136;2023-12-20T08:36:15;5.20;99.90
31113;DHT22;17763;48.730;9.136;2023-12-20T08:38:45;5.20;99.90
31113;DHT22;17763;48.730;9.136;2023-12-20T08:41:11;5.20;99.90
31113;DHT22;17763;48.730;9.136;2023-12-20T08:43:36;5.10;99.90
31113;DHT22;17763;48.730;9.136;2023-12-20T08:46:02;5.20;99.90
31113;DHT22;17763;48.730;9.136;2023-12-20T08:48:28;5.20;99.90
31113;DHT22;17763;48.730;9.136;2023-12-20T08:50:54;5.20;99.90
31113;DHT22;17763;48.730;9.136;2023-12-20T08:53:20;5.20;99.90
31113;DHT22;17763;48.730;9.136;2023-12-20T08:55:48;5.20;99.90
31113;DHT22;17763;48.730;9.136;2023-12-20T08:58:16;5.20;99.90
31113;DHT22;17763;48.730;9.136;2023-12-20T09:00:42;5.20;99.90
31113;DHT22;17763;48.730;9.136;2023-12-20T09:03:10;5.10;99.90
31113;DHT22;17763;48.730;9.136;2023-12-20T09:05:35;5.10;99.90
31113;DHT22;17763;48.730;9.136;2023-12-20T09:08:07;5.10;99.90
31113;DHT22;17763;48.730;9.136;2023-12-20T09:10:35;5.10;99.90
31113;DHT22;17763;48.730;9.136;2023-12-20T09:13:00;5.10;99.90
31113;DHT22;17763;48.730;9.136;2023-12-20T09:15:27;5.20;99.90
31113;DHT22;17763;48.730;9.136;2023-12-20T09:17:53;5.30;99.90
31113;DHT22;17763;48.730;9.136;2023-12-20T09:20:19;5.40;99.90
31113;DHT22;17763;48.730;9.136;2023-12-20T09:22:44;5.50;99.90
31113;DHT22;17763;48.730;9.136;2023-12-20T09:25:10;5.60;99.90
31113;DHT22;17763;48.730;9.136;2023-12-20T09:27:43;5.70;99.90
31113;DHT22;17763;48.730;9.136;2023-12-20T09:30:09;5.70;99.90
31113;DHT22;17763;48.730;9.136;2023-12-20T09:32:35;5.80;99.90
31113;DHT22;17763;48.730;9.136;2023-12-20T09:35:02;5.80;99.90
31113;DHT22;17763;48.730;9.136;2023-12-20T09:37:28;5.90;99.90
31113;DHT22;17763;48.730;9.136;2023-12-20T09:39:54;6.00;99.90
31113;DHT22;17763;48.730;9.136;2023-12-20T09:42:25;6.10;99.90
31113;DHT22;17763;48.730;9.136;2023-12-20T09:44:53;6.20;99.90
31113;DHT22;17763;48.730;9.136;2023-12-20T09:47:22;6.20;99.90
31113;DHT22;17763;48.730;9.136;2023-12-20T09:49:49;6.20;99.90
31113;DHT22;17763;48.730;9.136;2023-12-20T09:52:16;6.20;99.90
31113;DHT22;17763;48.730;9.136;2023-12-20T09:54:43;6.30;99.90
31113;DHT22;17763;48.730;9.136;2023-12-20T09:57:21;6.30;99.90
31113;DHT22;17763;48.730;9.136;2023-12-20T09:59:49;6.30;99.90
31113;DHT22;17763;48.730;9.136;2023-12-20T10:02:16;6.30;99.90
31113;DHT22;17763;48.730;9.136;2023-12-20T10:04:47;6.30;99.90
31113;DHT22;17763;48.730;9.136;2023-12-20T10:07:18;6.40;99.90
31113;DHT22;17763;48.730;9.136;2023-12-20T10:09:51;6.40;99.90
31113;DHT22;17763;48.730;9.136;2023-12-20T10:12:19;6.60;99.90
31113;DHT22;17763;48.730;9.136;2023-12-20T10:14:50;6.60;99.90
31113;DHT22;17763;48.730;9.136;2023-12-20T10:17:16;6.60;99.90
31113;DHT22;17763;48.730;9.136;2023-12-20T10:19:45;6.70;99.90
31113;DHT22;17763;48.730;9.136;2023-12-20T10:22:10;6.70;99.90
31113;DHT22;17763;48.730;9.136;2023-12-20T10:24:37;6.60;99.90
31113;DHT22;17763;48.730;9.136;2023-12-20T10:27:06;6.50;99.90
31113;DHT22;17763;48.730;9.136;2023-12-20T10:29:38;6.40;99.90
31113;DHT22;17763;48.730;9.136;2023-12-20T10:34:52;6.30;99.90
31113;DHT22;17763;48.730;9.136;2023-12-20T10:37:18;6.20;99.90
31113;DHT22;17763;48.730;9.136;2023-12-20T10:39:51;6.20;99.90
31113;DHT22;17763;48.730;9.136;2023-12-20T10:42:21;6.20;99.90
31113;DHT22;17763;48.730;9.136;2023-12-20T10:44:49;6.20;99.90
31113;DHT22;17763;48.730;9.136;2023-12-20T10:47:16;6.20;99.90
31113;DHT22;17763;48.730;9.136;2023-12-20T10:49:43;6.20;99.90
31113;DHT22;17763;48.730;9.136;2023-12-20T10:52:12;6.20;99.90
31113;DHT22;17763;48.730;9.136;2023-12-20T10:54:40;6.20;99.90
31113;DHT22;17763;48.730;9.136;2023-12-20T10:57:07;6.20;99.90
31113;DHT22;17763;48.730;9.136;2023-12-20T10:59:39;6.20;99.90
31113;DHT22;17763;48.730;9.136;2023-12-20T11:02:07;6.20;99.90
31113;DHT22;17763;48.730;9.136;2023-12-20T11:07:32;6.20;99.90
31113;DHT22;17763;48.730;9.136;2023-12-20T11:10:10;6.20;99.90
31113;DHT22;17763;48.730;9.136;2023-12-20T11:12:52;6.20;99.90
31113;DHT22;17763;48.730;9.136;2023-12-20T11:15:23;6.10;99.90
31113;DHT22;17763;48.730;9.136;2023-12-20T11:17:57;6.20;99.90
31113;DHT22;17763;48.730;9.136;2023-12-20T11:20:24;6.10;99.90
31113;DHT22;17763;48.730;9.136;2023-12-20T11:23:01;6.10;99.90
31113;DHT22;17763;48.730;9.136;2023-12-20T11:25:27;6.10;99.90
31113;DHT22;17763;48.730;9.136;2023-12-20T11:28:10;6.00;99.90
31113;DHT22;17763;48.730;9.136;2023-12-20T11:33:08;5.90;99.90
31113;DHT22;17763;48.730;9.136;2023-12-20T11:35:36;5.90;99.90
31113;DHT22;17763;48.730;9.136;2023-12-20T11:38:07;5.90;99.90
31113;DHT22;17763;48.730;9.136;2023-12-20T11:40:34;5.80;99.90
31113;DHT22;17763;48.730;9.136;2023-12-20T11:43:00;5.70;99.90
31113;DHT22;17763;48.730;9.136;2023-12-20T11:45:26;5.70;99.90
31113;DHT22;17763;48.730;9.136;2023-12-20T11:47:53;5.70;99.90
31113;DHT22;17763;48.730;9.136;2023-12-20T11:50:23;5.70;99.90
31113;DHT22;17763;48.730;9.136;2023-12-20T11:52:49;5.80;99.90
31113;DHT22;17763;48.730;9.136;2023-12-20T11:55:15;5.70;99.90
31113;DHT22;17763;48.730;9.136;2023-12-20T11:57:42;5.70;99.90
31113;DHT22;17763;48.730;9.136;2023-12-20T12:00:13;5.70;99.90
31113;DHT22;17763;48.730;9.136;2023-12-20T12:02:45;5.70;99.90
31113;DHT22;17763;48.730;9.136;2023-12-20T12:05:20;5.70;99.90
31113;DHT22;17763;48.730;9.136;2023-12-20T12:07:45;5.60;99.90
31113;DHT22;17763;48.730;9.136;2023-12-20T12:10:11;5.70;99.90
31113;DHT22;17763;48.730;9.136;2023-12-20T12:12:39;5.70;99.90
31113;DHT22;17763;48.730;9.136;2023-12-20T12:15:05;5.70;99.90
31113;DHT22;17763;48.730;9.136;2023-12-20T12:17:31;5.80;99.90
31113;DHT22;17763;48.730;9.136;2023-12-20T12:20:04;5.70;99.90
31113;DHT22;17763;48.730;9.136;2023-12-20T12:22:31;5.80;99.90
31113;DHT22;17763;48.730;9.136;2023-12-20T12:24:59;5.80;99.90
31113;DHT22;17763;48.730;9.136;2023-12-20T12:27:25;5.90;99.90
31113;DHT22;17763;48.730;9.136;2023-12-20T12:30:08;5.90;99.90
31113;DHT22;17763;48.730;9.136;2023-12-20T12:32:37;5.90;99.90
31113;DHT22;17763;48.730;9.136;2023-12-20T12:35:04;5.90;99.90
31113;DHT22;17763;48.730;9.136;2023-12-20T12:37:33;5.90;99.90
31113;DHT22;17763;48.730;9.136;2023-12-20T12:39:59;5.90;99.90
31113;DHT22;17763;48.730;9.136;2023-12-20T12:42:32;6.00;99.90
31113;DHT22;17763;48.730;9.136;2023-12-20T12:44:57;6.00;99.90
31113;DHT22;17763;48.730;9.136;2023-12-20T12:47:23;6.10;99.90
31113;DHT22;17763;48.730;9.136;2023-12-20T12:49:52;6.00;99.90
31113;DHT22;17763;48.730;9.136;2023-12-20T12:52:23;6.10;99.90
31113;DHT22;17763;48.730;9.136;2023-12-20T12:54:48;6.00;99.90
31113;DHT22;17763;48.730;9.136;2023-12-20T12:57:15;6.00;99.90
31113;DHT22;17763;48.730;9.136;2023-12-20T12:59:44;6.00;99.90
31113;DHT22;17763;48.730;9.136;2023-12-20T13:02:11;6.00;99.90
31113;DHT22;17763;48.730;9.136;2023-12-20T13:04:37;6.10;99.90
31113;DHT22;17763;48.730;9.136;2023-12-20T13:07:03;6.10;99.90
31113;DHT22;17763;48.730;9.136;2023-12-20T13:09:29;6.10;99.90
31113;DHT22;17763;48.730;9.136;2023-12-20T13:11:55;6.10;99.90
31113;DHT22;17763;48.730;9.136;2023-12-20T13:14:20;6.10;99.90
31113;DHT22;17763;48.730;9.136;2023-12-20T13:16:48;6.10;99.90
31113;DHT22;17763;48.730;9.136;2023-12-20T13:19:16;6.10;99.90
31113;DHT22;17763;48.730;9.136;2023-12-20T13:21:42;6.10;99.90
31113;DHT22;17763;48.730;9.136;2023-12-20T13:24:07;6.10;99.90
31113;DHT22;17763;48.730;9.136;2023-12-20T13:26:33;6.00;99.90
31113;DHT22;17763;48.730;9.136;2023-12-20T13:29:01;6.00;99.90
31113;DHT22;17763;48.730;9.136;2023-12-20T13:31:44;6.00;99.90
31113;DHT22;17763;48.730;9.136;2023-12-20T13:34:12;6.10;99.90
31113;DHT22;17763;48.730;9.136;2023-12-20T13:36:38;6.00;99.90
31113;DHT22;17763;48.730;9.136;2023-12-20T13:39:04;6.10;99.90
31113;DHT22;17763;48.730;9.136;2023-12-20T13:41:30;6.10;99.90
31113;DHT22;17763;48.730;9.136;2023-12-20T13:43:56;6.10;99.90
31113;DHT22;17763;48.730;9.136;2023-12-20T13:46:22;6.10;99.90
31113;DHT22;17763;48.730;9.136;2023-12-20T13:48:48;6.10;99.90
31113;DHT22;17763;48.730;9.136;2023-12-20T13:51:15;6.10;99.90
31113;DHT22;17763;48.730;9.136;2023-12-20T13:53:43;6.00;99.90
31113;DHT22;17763;48.730;9.136;2023-12-20T13:56:11;6.10;99.90
31113;DHT22;17763;48.730;9.136;2023-12-20T13:58:37;6.00;99.90
31113;DHT22;17763;48.730;9.136;2023-12-20T14:01:02;5.90;99.90
31113;DHT22;17763;48.730;9.136;2023-12-20T14:03:28;5.90;99.90
31113;DHT22;17763;48.730;9.136;2023-12-20T14:05:54;5.90;99.90
31113;DHT22;17763;48.730;9.136;2023-12-20T14:08:20;5.90;99.90
31113;DHT22;17763;48.730;9.136;2023-12-20T14:10:45;5.90;99.90
31113;DHT22;17763;48.730;9.136;2023-12-20T14:13:11;5.90;99.90
31113;DHT22;17763;48.730;9.136;2023-12-20T14:15:36;5.80;99.90
31113;DHT22;17763;48.730;9.136;2023-12-20T14:18:05;5.90;99.90
31113;DHT22;17763;48.730;9.136;2023-12-20T14:20:32;5.90;99.90
31113;DHT22;17763;48.730;9.136;2023-12-20T14:23:02;5.80;99.90
31113;DHT22;17763;48.730;9.136;2023-12-20T14:25:28;5.80;99.90
31113;DHT22;17763;48.730;9.136;2023-12-20T14:27:54;5.80;99.90
31113;DHT22;17763;48.730;9.136;2023-12-20T14:30:22;5.70;99.90
31113;DHT22;17763;48.730;9.136;2023-12-20T14:32:48;5.70;99.90
31113;DHT22;17763;48.730;9.136;2023-12-20T14:35:14;5.70;99.90
31113;DHT22;17763;48.730;9.136;2023-12-20T14:37:40;5.70;99.90
31113;DHT22;17763;48.730;9.136;2023-12-20T14:40:09;5.60;99.90
31113;DHT22;17763;48.730;9.136;2023-12-20T14:42:40;5.60;99.90
31113;DHT22;17763;48.730;9.136;2023-12-20T14:45:09;5.60;99.90
31113;DHT22;17763;48.730;9.136;2023-12-20T14:47:35;5.60;99.90
31113;DHT22;17763;48.730;9.136;2023-12-20T14:50:03;5.50;99.90
31113;DHT22;17763;48.730;9.136;2023-12-20T14:52:29;5.50;99.90
31113;DHT22;17763;48.730;9.136;2023-12-20T14:54:55;5.50;99.90
31113;DHT22;17763;48.730;9.136;2023-12-20T14:57:20;5.50;99.90
31113;DHT22;17763;48.730;9.136;2023-12-20T14:59:46;5.40;99.90
31113;DHT22;17763;48.730;9.136;2023-12-20T15:02:12;5.40;99.90
31113;DHT22;17763;48.730;9.136;2023-12-20T15:04:37;5.40;99.90
31113;DHT22;17763;48.730;9.136;2023-12-20T15:07:03;5.40;99.90
31113;DHT22;17763;48.730;9.136;2023-12-20T15:09:31;5.40;99.90
31113;DHT22;17763;48.730;9.136;2023-12-20T15:11:57;5.30;99.90
31113;DHT22;17763;48.730;9.136;2023-12-20T15:14:23;5.30;99.90
31113;DHT22;17763;48.730;9.136;2023-12-20T15:16:48;5.20;99.90
31113;DHT22;17763;48.730;9.136;2023-12-20T15:19:15;5.20;99.90
31113;DHT22;17763;48.730;9.136;2023-12-20T15:21:41;5.20;99.90
31113;DHT22;17763;48.730;9.136;2023-12-20T15:24:09;5.20;99.90
31113;DHT22;17763;48.730;9.136;2023-12-20T15:26:55;5.10;99.90
31113;DHT22;17763;48.730;9.136;2023-12-20T15:29:21;5.10;99.90
31113;DHT22;17763;48.730;9.136;2023-12-20T15:31:47;5.10;99.90
31113;DHT22;17763;48.730;9.136;2023-12-20T15:34:14;5.00;99.90
31113;DHT22;17763;48.730;9.136;2023-12-20T15:36:41;5.10;99.90
31113;DHT22;17763;48.730;9.136;2023-12-20T15:39:07;5.10;99.90
31113;DHT22;17763;48.730;9.136;2023-12-20T15:41:39;5.10;99.90
31113;DHT22;17763;48.730;9.136;2023-12-20T15:44:05;5.10;99.90
31113;DHT22;17763;48.730;9.136;2023-12-20T15:46:33;5.10;99.90
31113;DHT22;17763;48.730;9.136;2023-12-20T15:48:59;5.10;99.90
31113;DHT22;17763;48.730;9.136;2023-12-20T15:51:24;5.10;99.90